sensor_id;sensor_type;location;lat;lon;timestamp;temperature;humidity
76936;DHT22;65881;52.438;16.744;2023-04-25T00:00:32;7.60;78.80
76936;DHT22;65881;52.438;16.744;2023-04-25T00:03:00;7.60;79.00
76936;DHT22;65881;52.438;16.744;2023-04-25T00:05:26;7.60;79.00
76936;DHT22;65881;52.438;16.744;2023-04-25T00:07:52;7.50;79.30
76936;DHT22;65881;52.438;16.744;2023-04-25T00:10:19;7.50;79.50
76936;DHT22;65881;52.438;16.744;2023-04-25T00:12:45;7.40;79.30
76936;DHT22;65881;52.438;16.744;2023-04-25T00:15:12;7.40;79.40
76936;DHT22;65881;52.438;16.744;2023-04-25T00:17:37;7.40;79.50
76936;DHT22;65881;52.438;16.744;2023-04-25T00:20:06;7.30;79.90
76936;DHT22;65881;52.438;16.744;2023-04-25T00:22:35;7.20;80.30
76936;DHT22;65881;52.438;16.744;2023-04-25T00:25:07;7.20;80.80
76936;DHT22;65881;52.438;16.744;2023-04-25T00:27:32;7.00;80.80
76936;DHT22;65881;52.438;16.744;2023-04-25T00:29:58;7.00;81.00
76936;DHT22;65881;52.438;16.744;2023-04-25T00:32:24;7.00;80.70
76936;DHT22;65881;52.438;16.744;2023-04-25T00:34:50;7.00;81.20
76936;DHT22;65881;52.438;16.744;2023-04-25T00:37:16;7.00;81.30
76936;DHT22;65881;52.438;16.744;2023-04-25T00:39:41;6.90;81.50
76936;DHT22;65881;52.438;16.744;2023-04-25T00:42:08;6.90;81.90
76936;DHT22;65881;52.438;16.744;2023-04-25T00:44:38;6.80;82.00
76936;DHT22;65881;52.438;16.744;2023-04-25T00:47:11;6.80;82.00
76936;DHT22;65881;52.438;16.744;2023-04-25T00:49:37;6.80;81.90
76936;DHT22;65881;52.438;16.744;2023-04-25T00:52:04;6.80;82.00
76936;DHT22;65881;52.438;16.744;2023-04-25T00:54:29;6.80;82.00
76936;DHT22;65881;52.438;16.744;2023-04-25T00:56:56;6.80;82.00
76936;DHT22;65881;52.438;16.744;2023-04-25T00:59:22;6.80;82.60
76936;DHT22;65881;52.438;16.744;2023-04-25T01:01:48;6.70;82.50
76936;DHT22;65881;52.438;16.744;2023-04-25T01:04:14;6.70;82.70
76936;DHT22;65881;52.438;16.744;2023-04-25T01:06:40;6.70;82.70
76936;DHT22;65881;52.438;16.744;2023-04-25T01:09:09;6.70;83.20
76936;DHT22;65881;52.438;16.744;2023-04-25T01:11:35;6.60;83.50
76936;DHT22;65881;52.438;16.744;2023-04-25T01:14:01;6.60;83.70
76936;DHT22;65881;52.438;16.744;2023-04-25T01:16:33;6.50;84.20
76936;DHT22;65881;52.438;16.744;2023-04-25T01:18:59;6.50;84.60
76936;DHT22;65881;52.438;16.744;2023-04-25T01:21:25;6.40;84.70
76936;DHT22;65881;52.438;16.744;2023-04-25T01:23:58;6.40;85.30
76936;DHT22;65881;52.438;16.744;2023-04-25T01:26:24;6.40;85.30
76936;DHT22;65881;52.438;16.744;2023-04-25T01:28:52;6.30;85.80
76936;DHT22;65881;52.438;16.744;2023-04-25T01:31:18;6.30;85.90
76936;DHT22;65881;52.438;16.744;2023-04-25T01:33:45;6.30;86.10
76936;DHT22;65881;52.438;16.744;2023-04-25T01:36:11;6.30;86.40
76936;DHT22;65881;52.438;16.744;2023-04-25T01:38:37;6.30;86.50
76936;DHT22;65881;52.438;16.744;2023-04-25T01:41:03;6.20;86.40
76936;DHT22;65881;52.438;16.744;2023-04-25T01:43:28;6.20;86.40
76936;DHT22;65881;52.438;16.744;2023-04-25T01:45:54;6.20;86.40
76936;DHT22;65881;52.438;16.744;2023-04-25T01:48:21;6.10;86.70
76936;DHT22;65881;52.438;16.744;2023-04-25T01:50:46;6.10;86.90
76936;DHT22;65881;52.438;16.744;2023-04-25T01:53:15;6.10;87.00
76936;DHT22;65881;52.438;16.744;2023-04-25T01:55:52;6.00;87.20
76936;DHT22;65881;52.438;16.744;2023-04-25T01:58:34;6.00;87.50
76936;DHT22;65881;52.438;16.744;2023-04-25T02:01:20;6.00;87.50
76936;DHT22;65881;52.438;16.744;2023-04-25T02:03:45;6.00;87.70
76936;DHT22;65881;52.438;16.744;2023-04-25T02:06:11;6.00;87.50
76936;DHT22;65881;52.438;16.744;2023-04-25T02:08:36;6.00;87.60
76936;DHT22;65881;52.438;16.744;2023-04-25T02:11:03;5.90;87.90
76936;DHT22;65881;52.438;16.744;2023-04-25T02:13:28;5.90;87.70
76936;DHT22;65881;52.438;16.744;2023-04-25T02:15:54;6.00;87.70
76936;DHT22;65881;52.438;16.744;2023-04-25T02:18:23;5.90;87.80
76936;DHT22;65881;52.438;16.744;2023-04-25T02:20:49;5.90;87.90
76936;DHT22;65881;52.438;16.744;2023-04-25T02:23:14;5.90;87.80
76936;DHT22;65881;52.438;16.744;2023-04-25T02:25:44;5.90;87.90
76936;DHT22;65881;52.438;16.744;2023-04-25T02:28:10;5.90;87.80
76936;DHT22;65881;52.438;16.744;2023-04-25T02:30:36;5.90;87.80
76936;DHT22;65881;52.438;16.744;2023-04-25T02:33:01;5.90;87.50
76936;DHT22;65881;52.438;16.744;2023-04-25T02:35:27;5.90;87.40
76936;DHT22;65881;52.438;16.744;2023-04-25T02:37:53;5.90;87.30
76936;DHT22;65881;52.438;16.744;2023-04-25T02:40:19;5.90;87.10
76936;DHT22;65881;52.438;16.744;2023-04-25T02:42:44;5.80;87.00
76936;DHT22;65881;52.438;16.744;2023-04-25T02:45:13;5.80;87.10
76936;DHT22;65881;52.438;16.744;2023-04-25T02:47:38;5.80;87.10
76936;DHT22;65881;52.438;16.744;2023-04-25T02:50:06;5.80;87.10
76936;DHT22;65881;52.438;16.744;2023-04-25T02:52:31;5.80;87.20
76936;DHT22;65881;52.438;16.744;2023-04-25T02:54:57;5.80;87.20
76936;DHT22;65881;52.438;16.744;2023-04-25T02:57:23;5.70;87.30
76936;DHT22;65881;52.438;16.744;2023-04-25T02:59:49;5.70;87.50
76936;DHT22;65881;52.438;16.744;2023-04-25T03:02:14;5.70;87.70
76936;DHT22;65881;52.438;16.744;2023-04-25T03:04:43;5.70;87.70
76936;DHT22;65881;52.438;16.744;2023-04-25T03:07:09;5.70;88.00
76936;DHT22;65881;52.438;16.744;2023-04-25T03:09:35;5.60;88.40
76936;DHT22;65881;52.438;16.744;2023-04-25T03:12:08;5.60;88.50
76936;DHT22;65881;52.438;16.744;2023-04-25T03:14:34;5.60;88.60
76936;DHT22;65881;52.438;16.744;2023-04-25T03:17:00;5.60;88.80
76936;DHT22;65881;52.438;16.744;2023-04-25T03:19:26;5.60;88.80
76936;DHT22;65881;52.438;16.744;2023-04-25T03:21:54;5.60;88.90
76936;DHT22;65881;52.438;16.744;2023-04-25T03:24:21;5.60;88.90
76936;DHT22;65881;52.438;16.744;2023-04-25T03:26:51;5.70;89.00
76936;DHT22;65881;52.438;16.744;2023-04-25T03:29:17;5.60;89.00
76936;DHT22;65881;52.438;16.744;2023-04-25T03:31:43;5.60;89.00
76936;DHT22;65881;52.438;16.744;2023-04-25T03:34:08;5.60;89.00
76936;DHT22;65881;52.438;16.744;2023-04-25T03:36:34;5.60;89.20
76936;DHT22;65881;52.438;16.744;2023-04-25T03:39:00;5.60;89.20
76936;DHT22;65881;52.438;16.744;2023-04-25T03:41:25;5.60;89.20
76936;DHT22;65881;52.438;16.744;2023-04-25T03:43:51;5.60;89.30
76936;DHT22;65881;52.438;16.744;2023-04-25T03:46:17;5.60;89.40
76936;DHT22;65881;52.438;16.744;2023-04-25T03:48:42;5.60;89.40
76936;DHT22;65881;52.438;16.744;2023-04-25T03:51:23;5.60;89.50
76936;DHT22;65881;52.438;16.744;2023-04-25T03:53:52;5.70;89.40
76936;DHT22;65881;52.438;16.744;2023-04-25T03:56:24;5.70;89.50
76936;DHT22;65881;52.438;16.744;2023-04-25T03:59:07;5.70;90.00
76936;DHT22;65881;52.438;16.744;2023-04-25T04:01:48;5.70;90.10
76936;DHT22;65881;52.438;16.744;2023-04-25T04:04:14;5.70;90.20
76936;DHT22;65881;52.438;16.744;2023-04-25T04:06:50;5.80;90.20
76936;DHT22;65881;52.438;16.744;2023-04-25T04:09:35;5.80;90.30
76936;DHT22;65881;52.438;16.744;2023-04-25T04:12:01;5.80;90.50
76936;DHT22;65881;52.438;16.744;2023-04-25T04:14:35;5.80;90.50
76936;DHT22;65881;52.438;16.744;2023-04-25T04:17:00;5.90;90.60
76936;DHT22;65881;52.438;16.744;2023-04-25T04:19:30;5.90;90.70
76936;DHT22;65881;52.438;16.744;2023-04-25T04:21:56;6.00;90.30
76936;DHT22;65881;52.438;16.744;2023-04-25T04:24:21;6.00;90.50
76936;DHT22;65881;52.438;16.744;2023-04-25T04:26:47;6.00;90.10
76936;DHT22;65881;52.438;16.744;2023-04-25T04:29:13;6.10;90.00
76936;DHT22;65881;52.438;16.744;2023-04-25T04:31:49;6.10;89.50
76936;DHT22;65881;52.438;16.744;2023-04-25T04:34:16;6.20;89.40
76936;DHT22;65881;52.438;16.744;2023-04-25T04:36:46;6.20;89.60
76936;DHT22;65881;52.438;16.744;2023-04-25T04:39:14;6.20;89.50
76936;DHT22;65881;52.438;16.744;2023-04-25T04:41:40;6.20;89.30
76936;DHT22;65881;52.438;16.744;2023-04-25T04:44:19;6.20;89.50
76936;DHT22;65881;52.438;16.744;2023-04-25T04:46:45;6.20;89.70
76936;DHT22;65881;52.438;16.744;2023-04-25T04:49:12;6.20;89.60
76936;DHT22;65881;52.438;16.744;2023-04-25T04:51:39;6.20;89.60
76936;DHT22;65881;52.438;16.744;2023-04-25T04:54:06;6.30;90.10
76936;DHT22;65881;52.438;16.744;2023-04-25T04:56:32;6.30;89.70
76936;DHT22;65881;52.438;16.744;2023-04-25T04:59:01;6.30;89.80
76936;DHT22;65881;52.438;16.744;2023-04-25T05:01:28;6.30;90.10
76936;DHT22;65881;52.438;16.744;2023-04-25T05:03:55;6.30;90.00
76936;DHT22;65881;52.438;16.744;2023-04-25T05:06:26;6.40;89.80
76936;DHT22;65881;52.438;16.744;2023-04-25T05:08:52;6.50;89.70
76936;DHT22;65881;52.438;16.744;2023-04-25T05:11:18;6.50;89.20
76936;DHT22;65881;52.438;16.744;2023-04-25T05:13:45;6.60;88.60
76936;DHT22;65881;52.438;16.744;2023-04-25T05:16:12;6.60;88.30
76936;DHT22;65881;52.438;16.744;2023-04-25T05:18:38;6.70;88.50
76936;DHT22;65881;52.438;16.744;2023-04-25T05:21:04;6.70;88.00
76936;DHT22;65881;52.438;16.744;2023-04-25T05:23:32;6.80;88.50
76936;DHT22;65881;52.438;16.744;2023-04-25T05:25:58;6.90;88.30
76936;DHT22;65881;52.438;16.744;2023-04-25T05:28:23;6.90;88.10
76936;DHT22;65881;52.438;16.744;2023-04-25T05:30:49;6.90;87.70
76936;DHT22;65881;52.438;16.744;2023-04-25T05:33:15;7.00;87.50
76936;DHT22;65881;52.438;16.744;2023-04-25T05:35:41;7.00;87.50
76936;DHT22;65881;52.438;16.744;2023-04-25T05:38:07;7.00;88.00
76936;DHT22;65881;52.438;16.744;2023-04-25T05:40:33;7.00;88.10
76936;DHT22;65881;52.438;16.744;2023-04-25T05:42:58;7.20;87.00
76936;DHT22;65881;52.438;16.744;2023-04-25T05:45:46;7.20;86.90
76936;DHT22;65881;52.438;16.744;2023-04-25T05:48:12;7.20;86.80
76936;DHT22;65881;52.438;16.744;2023-04-25T05:50:38;7.40;86.60
76936;DHT22;65881;52.438;16.744;2023-04-25T05:53:06;7.40;86.10
76936;DHT22;65881;52.438;16.744;2023-04-25T05:55:32;7.40;85.70
76936;DHT22;65881;52.438;16.744;2023-04-25T05:57:57;7.50;85.70
76936;DHT22;65881;52.438;16.744;2023-04-25T06:00:23;7.50;84.60
76936;DHT22;65881;52.438;16.744;2023-04-25T06:02:56;7.40;84.60
76936;DHT22;65881;52.438;16.744;2023-04-25T06:05:22;7.40;84.60
76936;DHT22;65881;52.438;16.744;2023-04-25T06:07:48;7.40;84.60
76936;DHT22;65881;52.438;16.744;2023-04-25T06:10:13;7.40;84.00
76936;DHT22;65881;52.438;16.744;2023-04-25T06:12:39;7.50;85.30
76936;DHT22;65881;52.438;16.744;2023-04-25T06:15:06;7.50;84.80
76936;DHT22;65881;52.438;16.744;2023-04-25T06:17:33;7.60;84.30
76936;DHT22;65881;52.438;16.744;2023-04-25T06:19:58;7.60;83.90
76936;DHT22;65881;52.438;16.744;2023-04-25T06:22:24;7.60;83.50
76936;DHT22;65881;52.438;16.744;2023-04-25T06:24:50;7.80;84.00
76936;DHT22;65881;52.438;16.744;2023-04-25T06:27:17;7.90;84.00
76936;DHT22;65881;52.438;16.744;2023-04-25T06:29:43;8.00;82.50
76936;DHT22;65881;52.438;16.744;2023-04-25T06:32:11;7.80;81.20
76936;DHT22;65881;52.438;16.744;2023-04-25T06:34:37;7.80;82.40
76936;DHT22;65881;52.438;16.744;2023-04-25T06:37:02;7.80;81.90
76936;DHT22;65881;52.438;16.744;2023-04-25T06:39:29;7.90;83.20
76936;DHT22;65881;52.438;16.744;2023-04-25T06:41:55;8.00;82.50
76936;DHT22;65881;52.438;16.744;2023-04-25T06:44:26;8.00;83.40
76936;DHT22;65881;52.438;16.744;2023-04-25T06:46:54;8.00;83.10
76936;DHT22;65881;52.438;16.744;2023-04-25T06:49:20;8.10;82.30
76936;DHT22;65881;52.438;16.744;2023-04-25T06:51:46;8.10;81.30
76936;DHT22;65881;52.438;16.744;2023-04-25T06:54:11;8.20;81.90
76936;DHT22;65881;52.438;16.744;2023-04-25T06:56:37;8.30;82.00
76936;DHT22;65881;52.438;16.744;2023-04-25T06:59:03;8.40;81.80
76936;DHT22;65881;52.438;16.744;2023-04-25T07:01:28;8.40;81.30
76936;DHT22;65881;52.438;16.744;2023-04-25T07:03:57;8.40;81.20
76936;DHT22;65881;52.438;16.744;2023-04-25T07:06:24;8.50;80.90
76936;DHT22;65881;52.438;16.744;2023-04-25T07:08:51;8.50;80.30
76936;DHT22;65881;52.438;16.744;2023-04-25T07:11:16;8.50;79.70
76936;DHT22;65881;52.438;16.744;2023-04-25T07:13:42;8.50;80.00
76936;DHT22;65881;52.438;16.744;2023-04-25T07:16:08;8.50;79.50
76936;DHT22;65881;52.438;16.744;2023-04-25T07:18:33;8.50;79.60
76936;DHT22;65881;52.438;16.744;2023-04-25T07:20:59;8.60;80.30
76936;DHT22;65881;52.438;16.744;2023-04-25T07:23:24;8.60;79.10
76936;DHT22;65881;52.438;16.744;2023-04-25T07:25:50;8.60;79.20
76936;DHT22;65881;52.438;16.744;2023-04-25T07:28:16;8.60;78.60
76936;DHT22;65881;52.438;16.744;2023-04-25T07:30:41;8.60;78.70
76936;DHT22;65881;52.438;16.744;2023-04-25T07:33:07;8.60;79.00
76936;DHT22;65881;52.438;16.744;2023-04-25T07:35:33;8.80;79.30
76936;DHT22;65881;52.438;16.744;2023-04-25T07:37:58;8.90;78.80
76936;DHT22;65881;52.438;16.744;2023-04-25T07:40:24;9.00;80.30
76936;DHT22;65881;52.438;16.744;2023-04-25T07:42:50;9.20;78.30
76936;DHT22;65881;52.438;16.744;2023-04-25T07:45:16;9.20;77.50
76936;DHT22;65881;52.438;16.744;2023-04-25T07:47:42;9.10;77.50
76936;DHT22;65881;52.438;16.744;2023-04-25T07:50:08;9.00;77.90
76936;DHT22;65881;52.438;16.744;2023-04-25T07:52:33;9.20;77.70
76936;DHT22;65881;52.438;16.744;2023-04-25T07:55:01;9.40;77.50
76936;DHT22;65881;52.438;16.744;2023-04-25T07:57:27;9.40;76.50
76936;DHT22;65881;52.438;16.744;2023-04-25T07:59:53;9.40;77.10
76936;DHT22;65881;52.438;16.744;2023-04-25T08:02:19;9.50;76.20
76936;DHT22;65881;52.438;16.744;2023-04-25T08:04:45;9.60;75.50
76936;DHT22;65881;52.438;16.744;2023-04-25T08:07:14;9.70;75.50
76936;DHT22;65881;52.438;16.744;2023-04-25T08:09:40;9.80;75.00
76936;DHT22;65881;52.438;16.744;2023-04-25T08:12:06;10.00;74.80
76936;DHT22;65881;52.438;16.744;2023-04-25T08:14:32;10.10;74.40
76936;DHT22;65881;52.438;16.744;2023-04-25T08:17:02;10.30;73.20
76936;DHT22;65881;52.438;16.744;2023-04-25T08:19:29;10.10;73.70
76936;DHT22;65881;52.438;16.744;2023-04-25T08:21:55;10.30;74.60
76936;DHT22;65881;52.438;16.744;2023-04-25T08:24:22;10.30;73.10
76936;DHT22;65881;52.438;16.744;2023-04-25T08:26:48;10.00;72.20
76936;DHT22;65881;52.438;16.744;2023-04-25T08:29:14;10.20;73.40
76936;DHT22;65881;52.438;16.744;2023-04-25T08:31:39;10.50;72.60
76936;DHT22;65881;52.438;16.744;2023-04-25T08:34:08;10.30;71.60
76936;DHT22;65881;52.438;16.744;2023-04-25T08:36:34;10.20;72.10
76936;DHT22;65881;52.438;16.744;2023-04-25T08:38:59;10.20;72.50
76936;DHT22;65881;52.438;16.744;2023-04-25T08:41:27;10.10;72.50
76936;DHT22;65881;52.438;16.744;2023-04-25T08:43:53;10.30;73.30
76936;DHT22;65881;52.438;16.744;2023-04-25T08:46:20;10.70;72.10
76936;DHT22;65881;52.438;16.744;2023-04-25T08:48:47;10.80;71.30
76936;DHT22;65881;52.438;16.744;2023-04-25T08:51:23;10.80;69.50
76936;DHT22;65881;52.438;16.744;2023-04-25T08:53:51;10.50;70.30
76936;DHT22;65881;52.438;16.744;2023-04-25T08:56:17;10.70;70.60
76936;DHT22;65881;52.438;16.744;2023-04-25T08:58:48;10.60;70.40
76936;DHT22;65881;52.438;16.744;2023-04-25T09:01:13;10.70;71.20
76936;DHT22;65881;52.438;16.744;2023-04-25T09:03:39;10.80;69.70
76936;DHT22;65881;52.438;16.744;2023-04-25T09:06:06;10.70;71.40
76936;DHT22;65881;52.438;16.744;2023-04-25T09:08:31;10.50;72.20
76936;DHT22;65881;52.438;16.744;2023-04-25T09:10:57;10.60;71.50
76936;DHT22;65881;52.438;16.744;2023-04-25T09:13:27;10.50;70.90
76936;DHT22;65881;52.438;16.744;2023-04-25T09:15:57;10.50;70.20
76936;DHT22;65881;52.438;16.744;2023-04-25T09:18:29;10.60;70.40
76936;DHT22;65881;52.438;16.744;2023-04-25T09:20:57;10.80;69.90
76936;DHT22;65881;52.438;16.744;2023-04-25T09:23:24;10.60;70.70
76936;DHT22;65881;52.438;16.744;2023-04-25T09:25:53;10.70;70.30
76936;DHT22;65881;52.438;16.744;2023-04-25T09:28:26;10.80;70.80
76936;DHT22;65881;52.438;16.744;2023-04-25T09:30:56;10.80;69.90
76936;DHT22;65881;52.438;16.744;2023-04-25T09:33:30;10.70;71.30
76936;DHT22;65881;52.438;16.744;2023-04-25T09:36:05;10.80;69.60
76936;DHT22;65881;52.438;16.744;2023-04-25T09:38:41;11.00;69.90
76936;DHT22;65881;52.438;16.744;2023-04-25T09:41:10;11.30;69.80
76936;DHT22;65881;52.438;16.744;2023-04-25T09:43:38;11.50;67.80
76936;DHT22;65881;52.438;16.744;2023-04-25T09:46:09;11.40;68.30
76936;DHT22;65881;52.438;16.744;2023-04-25T09:48:35;11.40;67.10
76936;DHT22;65881;52.438;16.744;2023-04-25T09:53:38;11.30;68.20
76936;DHT22;65881;52.438;16.744;2023-04-25T09:56:05;11.10;68.00
76936;DHT22;65881;52.438;16.744;2023-04-25T09:58:36;11.20;67.80
76936;DHT22;65881;52.438;16.744;2023-04-25T10:01:04;11.10;67.80
76936;DHT22;65881;52.438;16.744;2023-04-25T10:03:31;10.90;68.90
76936;DHT22;65881;52.438;16.744;2023-04-25T10:06:02;11.10;67.10
76936;DHT22;65881;52.438;16.744;2023-04-25T10:08:36;11.30;66.10
76936;DHT22;65881;52.438;16.744;2023-04-25T10:11:03;11.40;65.10
76936;DHT22;65881;52.438;16.744;2023-04-25T10:13:30;11.40;66.00
76936;DHT22;65881;52.438;16.744;2023-04-25T10:16:03;11.20;68.20
76936;DHT22;65881;52.438;16.744;2023-04-25T10:18:30;11.20;66.60
76936;DHT22;65881;52.438;16.744;2023-04-25T10:20:58;11.00;66.50
76936;DHT22;65881;52.438;16.744;2023-04-25T10:23:25;10.90;66.40
76936;DHT22;65881;52.438;16.744;2023-04-25T10:25:52;10.60;66.50
76936;DHT22;65881;52.438;16.744;2023-04-25T10:28:21;10.40;68.90
76936;DHT22;65881;52.438;16.744;2023-04-25T10:31:03;10.20;67.90
76936;DHT22;65881;52.438;16.744;2023-04-25T10:33:40;10.20;68.50
76936;DHT22;65881;52.438;16.744;2023-04-25T10:36:13;10.30;70.30
76936;DHT22;65881;52.438;16.744;2023-04-25T10:38:39;10.20;67.60
76936;DHT22;65881;52.438;16.744;2023-04-25T10:41:08;10.10;67.90
76936;DHT22;65881;52.438;16.744;2023-04-25T10:43:35;10.10;68.70
76936;DHT22;65881;52.438;16.744;2023-04-25T10:46:25;10.30;69.00
76936;DHT22;65881;52.438;16.744;2023-04-25T10:48:57;10.50;69.30
76936;DHT22;65881;52.438;16.744;2023-04-25T10:51:25;10.70;68.70
76936;DHT22;65881;52.438;16.744;2023-04-25T10:56:42;11.20;68.50
76936;DHT22;65881;52.438;16.744;2023-04-25T10:59:19;11.70;66.40
76936;DHT22;65881;52.438;16.744;2023-04-25T11:01:54;12.30;64.80
76936;DHT22;65881;52.438;16.744;2023-04-25T11:04:31;12.50;63.40
76936;DHT22;65881;52.438;16.744;2023-04-25T11:09:36;11.80;63.40
76936;DHT22;65881;52.438;16.744;2023-04-25T11:12:03;11.70;63.70
76936;DHT22;65881;52.438;16.744;2023-04-25T11:14:30;11.90;62.80
76936;DHT22;65881;52.438;16.744;2023-04-25T11:16:59;12.00;62.50
76936;DHT22;65881;52.438;16.744;2023-04-25T11:19:26;11.70;62.50
76936;DHT22;65881;52.438;16.744;2023-04-25T11:22:00;11.70;63.70
76936;DHT22;65881;52.438;16.744;2023-04-25T11:24:33;11.40;63.50
76936;DHT22;65881;52.438;16.744;2023-04-25T11:27:03;11.10;63.90
76936;DHT22;65881;52.438;16.744;2023-04-25T11:29:33;10.80;65.70
76936;DHT22;65881;52.438;16.744;2023-04-25T11:32:00;10.80;65.60
76936;DHT22;65881;52.438;16.744;2023-04-25T11:34:28;10.80;65.60
76936;DHT22;65881;52.438;16.744;2023-04-25T11:36:56;11.00;65.80
76936;DHT22;65881;52.438;16.744;2023-04-25T11:39:24;10.90;65.80
76936;DHT22;65881;52.438;16.744;2023-04-25T11:41:50;10.80;66.00
76936;DHT22;65881;52.438;16.744;2023-04-25T11:44:17;10.60;69.00
76936;DHT22;65881;52.438;16.744;2023-04-25T11:46:43;10.30;71.10
76936;DHT22;65881;52.438;16.744;2023-04-25T11:49:09;10.10;71.80
76936;DHT22;65881;52.438;16.744;2023-04-25T11:51:42;10.10;73.20
76936;DHT22;65881;52.438;16.744;2023-04-25T11:54:08;10.10;73.00
76936;DHT22;65881;52.438;16.744;2023-04-25T11:56:34;10.20;73.70
76936;DHT22;65881;52.438;16.744;2023-04-25T11:59:02;10.20;73.50
76936;DHT22;65881;52.438;16.744;2023-04-25T12:01:33;10.40;74.40
76936;DHT22;65881;52.438;16.744;2023-04-25T12:04:13;10.50;74.10
76936;DHT22;65881;52.438;16.744;2023-04-25T12:06:40;10.60;72.80
76936;DHT22;65881;52.438;16.744;2023-04-25T12:09:11;10.70;72.60
76936;DHT22;65881;52.438;16.744;2023-04-25T12:11:55;10.50;71.20
76936;DHT22;65881;52.438;16.744;2023-04-25T12:14:23;10.50;70.10
76936;DHT22;65881;52.438;16.744;2023-04-25T12:16:56;10.50;70.20
76936;DHT22;65881;52.438;16.744;2023-04-25T12:19:23;10.60;70.60
76936;DHT22;65881;52.438;16.744;2023-04-25T12:21:57;10.80;69.70
76936;DHT22;65881;52.438;16.744;2023-04-25T12:24:26;10.80;69.20
76936;DHT22;65881;52.438;16.744;2023-04-25T12:27:01;10.80;69.00
76936;DHT22;65881;52.438;16.744;2023-04-25T12:29:28;10.70;70.40
76936;DHT22;65881;52.438;16.744;2023-04-25T12:31:55;11.00;68.80
76936;DHT22;65881;52.438;16.744;2023-04-25T12:34:22;11.10;70.20
76936;DHT22;65881;52.438;16.744;2023-04-25T12:36:54;11.10;71.10
76936;DHT22;65881;52.438;16.744;2023-04-25T12:39:23;10.90;71.00
76936;DHT22;65881;52.438;16.744;2023-04-25T12:41:52;10.90;70.50
76936;DHT22;65881;52.438;16.744;2023-04-25T12:44:19;11.10;71.30
76936;DHT22;65881;52.438;16.744;2023-04-25T12:46:46;11.40;70.60
76936;DHT22;65881;52.438;16.744;2023-04-25T12:49:12;11.40;69.20
76936;DHT22;65881;52.438;16.744;2023-04-25T12:51:40;11.40;69.80
76936;DHT22;65881;52.438;16.744;2023-04-25T12:54:13;11.40;67.60
76936;DHT22;65881;52.438;16.744;2023-04-25T12:56:57;11.30;67.90
76936;DHT22;65881;52.438;16.744;2023-04-25T12:59:23;10.90;69.40
76936;DHT22;65881;52.438;16.744;2023-04-25T13:01:49;10.20;71.20
76936;DHT22;65881;52.438;16.744;2023-04-25T13:04:15;9.80;75.70
76936;DHT22;65881;52.438;16.744;2023-04-25T13:06:41;9.60;76.10
76936;DHT22;65881;52.438;16.744;2023-04-25T13:09:07;9.40;76.60
76936;DHT22;65881;52.438;16.744;2023-04-25T13:11:35;9.40;77.30
76936;DHT22;65881;52.438;16.744;2023-04-25T13:14:01;9.20;78.70
76936;DHT22;65881;52.438;16.744;2023-04-25T13:16:27;9.20;80.50
76936;DHT22;65881;52.438;16.744;2023-04-25T13:18:54;9.30;80.00
76936;DHT22;65881;52.438;16.744;2023-04-25T13:21:21;9.40;80.10
76936;DHT22;65881;52.438;16.744;2023-04-25T13:23:47;9.50;80.00
76936;DHT22;65881;52.438;16.744;2023-04-25T13:26:12;9.60;80.10
76936;DHT22;65881;52.438;16.744;2023-04-25T13:28:38;9.70;80.40
76936;DHT22;65881;52.438;16.744;2023-04-25T13:31:05;9.60;80.40
76936;DHT22;65881;52.438;16.744;2023-04-25T13:33:31;9.70;82.00
76936;DHT22;65881;52.438;16.744;2023-04-25T13:35:57;9.80;82.00
76936;DHT22;65881;52.438;16.744;2023-04-25T13:38:26;9.90;82.40
76936;DHT22;65881;52.438;16.744;2023-04-25T13:40:51;9.90;82.60
76936;DHT22;65881;52.438;16.744;2023-04-25T13:43:21;10.00;82.80
76936;DHT22;65881;52.438;16.744;2023-04-25T13:45:52;10.20;81.10
76936;DHT22;65881;52.438;16.744;2023-04-25T13:48:18;10.20;81.90
76936;DHT22;65881;52.438;16.744;2023-04-25T13:50:45;10.30;80.80
76936;DHT22;65881;52.438;16.744;2023-04-25T13:53:11;10.40;82.50
76936;DHT22;65881;52.438;16.744;2023-04-25T13:55:37;10.50;81.40
76936;DHT22;65881;52.438;16.744;2023-04-25T13:58:04;10.70;79.40
76936;DHT22;65881;52.438;16.744;2023-04-25T14:00:37;10.90;74.60
76936;DHT22;65881;52.438;16.744;2023-04-25T14:03:07;10.90;73.60
76936;DHT22;65881;52.438;16.744;2023-04-25T14:05:34;10.80;73.00
76936;DHT22;65881;52.438;16.744;2023-04-25T14:08:20;10.50;75.80
76936;DHT22;65881;52.438;16.744;2023-04-25T14:10:46;10.30;74.70
76936;DHT22;65881;52.438;16.744;2023-04-25T14:13:11;10.00;75.10
76936;DHT22;65881;52.438;16.744;2023-04-25T14:15:37;10.00;77.10
76936;DHT22;65881;52.438;16.744;2023-04-25T14:18:03;9.80;74.00
76936;DHT22;65881;52.438;16.744;2023-04-25T14:20:29;9.80;75.70
76936;DHT22;65881;52.438;16.744;2023-04-25T14:22:54;9.80;75.60
76936;DHT22;65881;52.438;16.744;2023-04-25T14:25:31;9.90;74.00
76936;DHT22;65881;52.438;16.744;2023-04-25T14:27:59;9.80;74.30
76936;DHT22;65881;52.438;16.744;2023-04-25T14:30:24;9.80;74.20
76936;DHT22;65881;52.438;16.744;2023-04-25T14:32:50;10.00;74.30
76936;DHT22;65881;52.438;16.744;2023-04-25T14:35:16;10.30;74.40
76936;DHT22;65881;52.438;16.744;2023-04-25T14:37:41;10.70;74.90
76936;DHT22;65881;52.438;16.744;2023-04-25T14:40:08;10.90;70.40
76936;DHT22;65881;52.438;16.744;2023-04-25T14:42:36;11.10;69.20
76936;DHT22;65881;52.438;16.744;2023-04-25T14:45:03;11.00;67.60
76936;DHT22;65881;52.438;16.744;2023-04-25T14:47:29;10.90;65.90
76936;DHT22;65881;52.438;16.744;2023-04-25T14:49:55;10.80;65.60
76936;DHT22;65881;52.438;16.744;2023-04-25T14:52:21;10.70;67.10
76936;DHT22;65881;52.438;16.744;2023-04-25T14:54:47;10.80;66.20
76936;DHT22;65881;52.438;16.744;2023-04-25T14:57:13;10.70;67.50
76936;DHT22;65881;52.438;16.744;2023-04-25T14:59:39;10.70;66.50
76936;DHT22;65881;52.438;16.744;2023-04-25T15:02:05;10.70;65.50
76936;DHT22;65881;52.438;16.744;2023-04-25T15:04:31;10.50;66.90
76936;DHT22;65881;52.438;16.744;2023-04-25T15:06:57;10.50;67.20
76936;DHT22;65881;52.438;16.744;2023-04-25T15:09:22;10.50;67.30
76936;DHT22;65881;52.438;16.744;2023-04-25T15:11:50;10.50;68.40
76936;DHT22;65881;52.438;16.744;2023-04-25T15:14:20;10.50;69.50
76936;DHT22;65881;52.438;16.744;2023-04-25T15:16:45;10.50;68.30
76936;DHT22;65881;52.438;16.744;2023-04-25T15:19:12;10.40;67.60
76936;DHT22;65881;52.438;16.744;2023-04-25T15:21:42;10.40;66.90
76936;DHT22;65881;52.438;16.744;2023-04-25T15:24:10;10.20;67.10
76936;DHT22;65881;52.438;16.744;2023-04-25T15:26:36;10.10;66.90
76936;DHT22;65881;52.438;16.744;2023-04-25T15:29:02;10.00;67.10
76936;DHT22;65881;52.438;16.744;2023-04-25T15:31:29;10.00;67.60
76936;DHT22;65881;52.438;16.744;2023-04-25T15:33:58;10.00;67.80
76936;DHT22;65881;52.438;16.744;2023-04-25T15:36:26;10.00;66.90